Time;durP1;ratioP1;P1;durP2;ratioP2;P2;SDS_P1;SDS_P2;PMS_P1;PMS_P2;Temp;Humidity;BMP_temperature;BMP_pressure;BME280_temperature;BME280_humidity;BME280_pressure;Samples;Min_cycle;Max_cycle;Signal;HPM_P1;HPM_P2
2021/12/25 00:01:41;;;;;;;;;;;;;;;6.28;87.81;99766.28;4975962;28;19900;-68
2021/12/25 00:04:07;;;;;;;;;;;;;;;6.32;87.62;99760.63;4972126;28;19916;-70
2021/12/25 00:06:32;;;;;;;;;;;;;;;6.31;87.18;99773.91;4955366;28;20841;-70
2021/12/25 00:08:58;;;;;;;;;;;;;;;6.32;87.17;99772.94;4955218;28;19916;-70
2021/12/25 00:11:23;;;;;;;;;;;;;;;6.32;87.00;99767.69;4984134;28;19920;-70
2021/12/25 00:13:48;;;;;;;;;;;;;;;6.33;87.38;99766.69;4994403;28;19968;-71
2021/12/25 00:16:13;;;;;;;;;;;;;;;6.32;86.89;99779.03;4971957;28;19908;-70
2021/12/25 00:18:39;;;;;;;;;;;;;;;6.30;86.87;99772.22;4988813;28;19908;-67
2021/12/25 00:21:04;;;;;;;;;;;;;;;6.30;86.47;99772.22;4971766;28;19953;-71
2021/12/25 00:23:29;;;;;;;;;;;;;;;6.27;86.57;99775.13;4973503;28;20343;-71
2021/12/25 00:26:03;;;;;;;;;;;;;;;6.30;86.42;99777.47;4970110;28;19904;-69
2021/12/25 00:35:56;;;;;;;;;;;;;;;6.30;86.50;99764.34;4968646;28;19912;-69
2021/12/25 00:38:21;;;;;;;;;;;;;;;6.19;87.18;99773.19;4969876;28;19971;-69
2021/12/25 00:40:55;;;;;;;;;;;;;;;6.26;87.50;99768.19;4958649;28;19997;-69
2021/12/25 00:43:20;;;;;;;;;;;;;;;6.26;86.58;99768.19;4956227;28;19935;-69
2021/12/25 00:45:45;;;;;;;;;;;;;;;6.23;86.09;99756.16;4955923;28;19925;-70
2021/12/25 00:48:10;;;;;;;;;;;;;;;6.28;86.43;99761.03;4955626;28;19917;-69
2021/12/25 00:50:36;;;;;;;;;;;;;;;6.16;85.38;99748.00;4953877;28;20455;-69
2021/12/25 00:53:01;;;;;;;;;;;;;;;6.17;85.57;99746.19;4967744;28;19920;-70
2021/12/25 00:55:26;;;;;;;;;;;;;;;6.10;85.77;99743.25;4977756;28;19904;-70
2021/12/25 00:57:52;;;;;;;;;;;;;;;6.09;85.95;99746.88;4974272;28;19911;-69
2021/12/25 01:00:17;;;;;;;;;;;;;;;6.06;85.79;99747.13;4972580;28;19969;-70
2021/12/25 01:02:43;;;;;;;;;;;;;;;6.04;85.89;99753.47;4937426;28;19912;-69
2021/12/25 01:05:08;;;;;;;;;;;;;;;6.04;85.96;99758.75;4935616;28;20021;-69
2021/12/25 01:07:34;;;;;;;;;;;;;;;6.07;85.61;99764.53;4961004;28;20407;-69
2021/12/25 01:10:02;;;;;;;;;;;;;;;6.05;86.09;99753.34;4959955;28;20116;-69
2021/12/25 01:12:31;;;;;;;;;;;;;;;6.04;86.12;99750.88;4954160;28;19983;-69
2021/12/25 01:14:59;;;;;;;;;;;;;;;6.06;85.87;99748.91;4954015;28;20516;-69
2021/12/25 01:23:47;;;;;;;;;;;;;;;6.12;86.16;99751.84;4907401;28;19912;-69
2021/12/25 01:26:18;;;;;;;;;;;;;;;6.14;86.24;99752.53;4949748;28;19961;-68
2021/12/25 01:31:42;;;;;;;;;;;;;;;6.11;86.20;99750.19;4955314;28;20368;-69
2021/12/25 01:37:02;;;;;;;;;;;;;;;6.13;85.10;99748.25;4960954;28;19924;-68
2021/12/25 01:39:44;;;;;;;;;;;;;;;6.15;85.19;99751.59;4960504;28;19917;-68
2021/12/25 01:47:52;;;;;;;;;;;;;;;6.11;84.30;99746.75;4970374;28;19970;-67
2021/12/25 01:50:19;;;;;;;;;;;;;;;6.12;84.35;99746.59;4967438;28;19968;-70
2021/12/25 01:52:44;;;;;;;;;;;;;;;6.18;83.95;99747.88;4970632;28;20133;-70
2021/12/25 01:55:11;;;;;;;;;;;;;;;6.11;83.51;99739.69;4971471;28;20588;-70
2021/12/25 01:57:36;;;;;;;;;;;;;;;6.01;83.28;99741.44;4969809;28;19973;-70
2021/12/25 02:00:03;;;;;;;;;;;;;;;6.05;83.84;99737.59;4965787;28;19909;-68
2021/12/25 02:02:28;;;;;;;;;;;;;;;6.09;84.14;99746.03;4973621;28;19992;-70
2021/12/25 02:04:53;;;;;;;;;;;;;;;6.11;83.70;99750.19;4972993;28;20493;-71
2021/12/25 02:07:19;;;;;;;;;;;;;;;6.18;83.53;99753.13;4979236;28;19956;-69
2021/12/25 02:09:44;;;;;;;;;;;;;;;6.13;82.48;99748.25;4960509;28;20016;-71
2021/12/25 02:12:11;;;;;;;;;;;;;;;6.21;82.85;99755.47;4992719;28;19916;-71
2021/12/25 02:14:37;;;;;;;;;;;;;;;6.29;82.00;99749.53;4976124;28;19953;-71
2021/12/25 02:17:15;;;;;;;;;;;;;;;6.08;82.30;99754.84;4958746;28;20147;-67
2021/12/25 02:19:50;;;;;;;;;;;;;;;6.02;83.26;99753.59;4977423;28;19931;-68
2021/12/25 02:22:18;;;;;;;;;;;;;;;6.05;83.84;99750.72;4973543;28;19977;-70
2021/12/25 02:24:43;;;;;;;;;;;;;;;6.09;82.63;99753.91;4991247;28;20362;-71
2021/12/25 02:27:08;;;;;;;;;;;;;;;6.11;83.13;99749.38;4971795;28;19957;-67
2021/12/25 02:29:33;;;;;;;;;;;;;;;6.05;82.82;99750.72;4993768;28;20024;-68
2021/12/25 02:31:59;;;;;;;;;;;;;;;6.03;83.54;99742.13;4973041;28;19916;-68
2021/12/25 02:34:24;;;;;;;;;;;;;;;6.06;83.37;99741.84;4988149;28;19908;-68
2021/12/25 02:36:49;;;;;;;;;;;;;;;6.07;82.30;99742.72;4972594;28;20021;-69
2021/12/25 02:39:15;;;;;;;;;;;;;;;6.10;82.49;99743.25;4960225;28;20414;-68
2021/12/25 02:41:40;;;;;;;;;;;;;;;6.09;82.65;99736.38;4972973;28;20936;-68
2021/12/25 02:44:05;;;;;;;;;;;;;;;6.03;82.62;99734.25;4991162;28;20005;-69
2021/12/25 02:46:31;;;;;;;;;;;;;;;6.02;82.49;99743.09;4992347;28;19978;-69
2021/12/25 02:48:58;;;;;;;;;;;;;;;6.04;82.18;99735.94;4976207;28;19908;-68
2021/12/25 02:51:24;;;;;;;;;;;;;;;5.96;81.93;99726.03;4973227;28;20743;-69
2021/12/25 02:53:49;;;;;;;;;;;;;;;5.92;82.67;99724.66;4974046;28;19905;-69
2021/12/25 02:56:14;;;;;;;;;;;;;;;5.89;82.60;99726.72;4990541;28;20613;-68
2021/12/25 02:58:39;;;;;;;;;;;;;;;5.88;82.62;99731.13;4974366;28;19954;-68
2021/12/25 03:01:09;;;;;;;;;;;;;;;5.84;82.83;99725.31;4973276;28;20033;-68
2021/12/25 03:03:34;;;;;;;;;;;;;;;5.84;82.69;99732.34;4973888;28;20095;-68
2021/12/25 03:06:03;;;;;;;;;;;;;;;5.80;82.93;99731.78;4972354;28;20353;-68
2021/12/25 03:08:28;;;;;;;;;;;;;;;5.83;82.99;99726.25;4975544;28;19917;-68
2021/12/25 03:10:54;;;;;;;;;;;;;;;5.83;82.70;99726.25;4951901;28;19939;-69
2021/12/25 03:13:34;;;;;;;;;;;;;;;5.88;82.52;99732.91;4951051;28;20087;-69
2021/12/25 03:15:59;;;;;;;;;;;;;;;5.91;81.85;99725.63;4959381;28;19993;-68
2021/12/25 03:18:26;;;;;;;;;;;;;;;5.90;82.27;99725.75;4955095;28;20125;-68
2021/12/25 03:20:53;;;;;;;;;;;;;;;5.87;81.67;99734.72;4954846;28;20122;-68
2021/12/25 03:23:19;;;;;;;;;;;;;;;5.85;82.24;99732.22;4974403;28;20355;-69
2021/12/25 03:25:44;;;;;;;;;;;;;;;5.88;81.65;99733.75;4955999;28;19905;-68
2021/12/25 03:28:10;;;;;;;;;;;;;;;5.88;82.03;99735.53;4955775;28;20157;-68
2021/12/25 03:30:38;;;;;;;;;;;;;;;5.84;81.55;99738.44;4954287;28;19913;-69
2021/12/25 03:33:07;;;;;;;;;;;;;;;5.86;81.88;99733.03;4956333;28;19932;-69
2021/12/25 03:35:34;;;;;;;;;;;;;;;5.77;82.16;99736.47;4960764;28;19904;-68
2021/12/25 03:37:59;;;;;;;;;;;;;;;5.76;82.85;99730.38;4975815;28;20159;-69
2021/12/25 03:40:24;;;;;;;;;;;;;;;5.81;83.28;99743.09;4982622;28;19950;-68
2021/12/25 03:42:49;;;;;;;;;;;;;;;5.74;83.01;99745.44;4977543;28;19997;-67
2021/12/25 03:45:15;;;;;;;;;;;;;;;5.72;82.91;99747.34;4993123;28;20182;-68
2021/12/25 03:47:41;;;;;;;;;;;;;;;5.70;83.80;99746.66;4976911;28;19927;-68
2021/12/25 03:58:24;;;;;;;;;;;;;;;5.59;85.46;99751.97;4982372;28;19931;-66
2021/12/25 04:00:50;;;;;;;;;;;;;;;5.60;84.78;99756.28;4993431;28;19915;-68
2021/12/25 04:03:26;;;;;;;;;;;;;;;5.49;85.69;99744.88;4993555;28;20024;-70
2021/12/25 04:05:51;;;;;;;;;;;;;;;5.49;85.86;99747.50;4986146;28;19919;-68
2021/12/25 04:08:20;;;;;;;;;;;;;;;5.51;86.38;99739.50;4989434;28;20913;-68
2021/12/25 04:10:47;;;;;;;;;;;;;;;5.46;85.87;99747.75;4986115;28;20405;-69
2021/12/25 04:13:15;;;;;;;;;;;;;;;5.31;86.04;99746.41;4971008;28;19931;-69
2021/12/25 04:15:40;;;;;;;;;;;;;;;5.27;86.95;99752.88;4972163;28;20618;-69
2021/12/25 04:18:06;;;;;;;;;;;;;;;5.28;86.40;99747.50;4972780;28;19911;-69
2021/12/25 04:20:31;;;;;;;;;;;;;;;5.28;86.16;99747.50;4966121;28;19953;-69
2021/12/25 04:23:04;;;;;;;;;;;;;;;5.34;86.44;99740.91;4955551;28;19904;-68
2021/12/25 04:25:32;;;;;;;;;;;;;;;5.27;86.71;99750.25;4955720;28;19908;-68
2021/12/25 04:28:03;;;;;;;;;;;;;;;5.14;87.56;99751.25;4955635;28;20302;-68
2021/12/25 04:31:04;;;;;;;;;;;;;;;5.11;87.54;99750.69;4955644;28;19919;-68
2021/12/25 05:03:47;;;;;;;;;;;;;;;4.95;88.83;99764.19;4975735;28;20075;-68
2021/12/25 05:06:12;;;;;;;;;;;;;;;4.97;88.49;99778.84;4968684;28;19904;-69
2021/12/25 05:08:37;;;;;;;;;;;;;;;4.92;88.29;99782.81;4974042;28;19912;-69
2021/12/25 05:11:03;;;;;;;;;;;;;;;4.93;88.43;99774.00;4957544;28;20834;-69
2021/12/25 05:13:28;;;;;;;;;;;;;;;4.91;88.55;99778.53;4972268;28;19920;-69
2021/12/25 05:15:53;;;;;;;;;;;;;;;4.87;88.45;99772.69;4972436;28;19980;-69
2021/12/25 05:18:18;;;;;;;;;;;;;;;4.91;88.20;99778.53;4973821;28;19949;-70
2021/12/25 05:20:44;;;;;;;;;;;;;;;4.88;88.64;99773.53;4956229;28;19908;-68
2021/12/25 05:23:09;;;;;;;;;;;;;;;4.84;88.45;99779.97;4974692;28;20056;-68
2021/12/25 05:25:35;;;;;;;;;;;;;;;4.79;89.06;99773.34;4969866;28;19912;-70
2021/12/25 05:28:02;;;;;;;;;;;;;;;4.77;89.53;99764.75;4971392;28;20005;-71
2021/12/25 05:30:27;;;;;;;;;;;;;;;4.80;88.88;99767.13;4952940;28;20029;-70
2021/12/25 05:32:53;;;;;;;;;;;;;;;4.79;89.62;99773.34;4953402;28;20796;-68
2021/12/25 05:35:18;;;;;;;;;;;;;;;4.70;89.36;99774.06;4973181;28;20179;-69
2021/12/25 05:37:43;;;;;;;;;;;;;;;4.82;89.82;99773.09;4967425;28;19911;-69
2021/12/25 05:40:09;;;;;;;;;;;;;;;4.67;89.42;99774.31;4972689;28;19908;-69
2021/12/25 05:42:34;;;;;;;;;;;;;;;4.69;89.42;99772.38;4991463;28;19915;-69
2021/12/25 05:44:59;;;;;;;;;;;;;;;4.67;90.06;99773.47;4991487;28;20012;-68
2021/12/25 05:47:25;;;;;;;;;;;;;;;4.67;89.45;99778.69;4991849;28;19914;-69
2021/12/25 05:49:50;;;;;;;;;;;;;;;4.55;89.73;99772.66;4994946;28;19904;-69
2021/12/25 05:52:15;;;;;;;;;;;;;;;4.66;89.05;99775.25;4995416;28;20367;-69
2021/12/25 05:54:41;;;;;;;;;;;;;;;4.53;88.51;99777.22;4973262;28;20876;-69
2021/12/25 05:57:06;;;;;;;;;;;;;;;4.52;88.61;99781.59;4970470;28;20305;-69
2021/12/25 05:59:31;;;;;;;;;;;;;;;4.42;89.00;99781.47;4993740;28;20783;-70
2021/12/25 06:01:56;;;;;;;;;;;;;;;4.43;88.44;99779.72;4991153;28;20189;-69
2021/12/25 06:04:22;;;;;;;;;;;;;;;4.40;89.10;99783.41;4972982;28;19912;-69
2021/12/25 06:06:47;;;;;;;;;;;;;;;4.37;88.92;99794.13;4985179;28;19972;-70
2021/12/25 06:09:12;;;;;;;;;;;;;;;4.33;88.17;99790.09;4982133;28;20005;-69
2021/12/25 06:11:37;;;;;;;;;;;;;;;4.29;87.57;99792.09;4973379;28;19905;-69
2021/12/25 06:14:10;;;;;;;;;;;;;;;4.34;88.31;99810.06;4976907;28;20723;-69
2021/12/25 06:16:36;;;;;;;;;;;;;;;4.47;86.89;99794.25;4975543;28;19919;-69
2021/12/25 06:19:01;;;;;;;;;;;;;;;4.35;86.75;99809.13;4989395;28;19904;-69
2021/12/25 06:21:26;;;;;;;;;;;;;;;4.30;87.48;99811.25;4991467;28;19915;-69
2021/12/25 06:23:51;;;;;;;;;;;;;;;4.28;87.58;99815.78;4973110;28;19908;-70
2021/12/25 06:26:17;;;;;;;;;;;;;;;4.30;87.66;99808.63;4974587;28;20468;-69
2021/12/25 06:28:42;;;;;;;;;;;;;;;4.16;88.03;99811.50;4995200;28;19908;-70
2021/12/25 06:31:07;;;;;;;;;;;;;;;4.19;88.26;99819.97;4973356;28;20334;-70
2021/12/25 06:33:32;;;;;;;;;;;;;;;4.19;88.68;99812.09;4989655;28;20853;-68
2021/12/25 06:35:57;;;;;;;;;;;;;;;4.16;88.07;99825.44;4979222;28;20853;-68
2021/12/25 06:38:23;;;;;;;;;;;;;;;4.11;88.01;99825.78;4975889;28;20764;-68
2021/12/25 06:40:48;;;;;;;;;;;;;;;4.15;88.36;99826.38;4986630;28;20630;-69
2021/12/25 06:43:13;;;;;;;;;;;;;;;4.03;86.93;99835.16;4970553;28;20836;-69
2021/12/25 06:45:39;;;;;;;;;;;;;;;3.99;87.80;99825.88;4965507;28;20023;-70
2021/12/25 06:48:04;;;;;;;;;;;;;;;3.94;88.06;99831.47;4952508;28;19934;-68
2021/12/25 06:50:29;;;;;;;;;;;;;;;4.00;87.92;99841.47;4954944;28;20073;-69
2021/12/25 06:52:55;;;;;;;;;;;;;;;3.94;87.60;99839.31;4949158;28;20948;-68
2021/12/25 06:55:21;;;;;;;;;;;;;;;3.91;88.13;99850.84;4957233;28;20264;-69
2021/12/25 06:57:52;;;;;;;;;;;;;;;3.93;87.83;99842.88;4959229;28;20030;-69
2021/12/25 07:00:18;;;;;;;;;;;;;;;3.97;88.36;99843.50;4950410;28;20591;-69
2021/12/25 07:02:43;;;;;;;;;;;;;;;3.82;87.74;99853.34;4989308;28;19912;-70
2021/12/25 07:05:08;;;;;;;;;;;;;;;3.78;88.50;99845.72;4975042;28;20018;-69
2021/12/25 07:07:33;;;;;;;;;;;;;;;3.83;88.17;99849.78;4965616;28;19954;-70
2021/12/25 07:09:59;;;;;;;;;;;;;;;3.79;86.81;99851.78;4963117;28;19961;-68
2021/12/25 07:12:25;;;;;;;;;;;;;;;3.78;87.37;99857.97;4982580;28;19924;-68
2021/12/25 07:14:50;;;;;;;;;;;;;;;3.79;87.05;99862.25;4976295;28;19923;-67
2021/12/25 07:17:15;;;;;;;;;;;;;;;3.77;87.92;99864.16;4960795;28;20395;-69
2021/12/25 07:19:40;;;;;;;;;;;;;;;3.65;86.97;99870.28;4977749;28;20235;-68
2021/12/25 07:22:06;;;;;;;;;;;;;;;3.67;87.35;99869.25;4974921;28;19900;-68
2021/12/25 07:24:31;;;;;;;;;;;;;;;3.67;88.16;99871.84;4970388;28;20025;-69
2021/12/25 07:26:58;;;;;;;;;;;;;;;3.79;88.37;99872.72;4965102;28;19908;-67
2021/12/25 07:29:23;;;;;;;;;;;;;;;3.69;87.03;99880.41;4973909;28;19908;-69
2021/12/25 07:31:49;;;;;;;;;;;;;;;3.66;87.61;99880.66;4972586;28;19960;-67
2021/12/25 07:34:14;;;;;;;;;;;;;;;3.68;87.34;99878.75;4976719;28;20129;-67
2021/12/25 07:36:39;;;;;;;;;;;;;;;3.76;87.57;99886.03;4994849;28;19912;-67
2021/12/25 07:39:05;;;;;;;;;;;;;;;3.75;86.72;99887.81;4972630;28;19969;-68
2021/12/25 07:41:30;;;;;;;;;;;;;;;3.66;86.61;99888.50;4975460;28;19905;-69
2021/12/25 07:43:55;;;;;;;;;;;;;;;3.49;86.34;99894.97;4967867;28;19993;-69
2021/12/25 07:46:22;;;;;;;;;;;;;;;3.40;87.18;99899.09;4976359;28;20343;-67
2021/12/25 07:48:47;;;;;;;;;;;;;;;3.48;87.95;99902.94;4973786;28;19917;-67
2021/12/25 07:51:12;;;;;;;;;;;;;;;3.61;87.28;99895.88;4973403;28;20540;-68
2021/12/25 07:53:38;;;;;;;;;;;;;;;3.43;86.44;99904.09;4969962;28;19920;-68
2021/12/25 07:56:03;;;;;;;;;;;;;;;3.27;87.04;99906.13;4971795;28;20642;-69
2021/12/25 07:58:28;;;;;;;;;;;;;;;3.47;87.04;99906.47;4977704;28;19905;-69
2021/12/25 08:00:54;;;;;;;;;;;;;;;3.49;87.24;99912.44;4946236;28;20009;-69
2021/12/25 08:03:19;;;;;;;;;;;;;;;3.43;86.94;99914.56;4990698;28;19909;-69
2021/12/25 08:05:44;;;;;;;;;;;;;;;3.34;86.80;99920.47;4970294;28;20789;-68
2021/12/25 08:08:11;;;;;;;;;;;;;;;3.49;87.08;99915.91;4964339;28;20041;-68
2021/12/25 08:10:37;;;;;;;;;;;;;;;3.48;86.64;99916.00;4960419;28;19917;-69
2021/12/25 08:13:02;;;;;;;;;;;;;;;3.40;86.92;99917.41;4969354;28;20202;-69
2021/12/25 08:15:28;;;;;;;;;;;;;;;3.39;87.25;99918.34;4975751;28;19905;-67
2021/12/25 08:17:53;;;;;;;;;;;;;;;3.47;87.35;99925.66;4969766;28;19935;-67
2021/12/25 08:20:18;;;;;;;;;;;;;;;3.38;86.82;99927.13;4974800;28;19909;-67
2021/12/25 08:22:44;;;;;;;;;;;;;;;3.42;87.26;99931.19;4962768;28;19912;-67
2021/12/25 08:25:09;;;;;;;;;;;;;;;3.46;86.89;99936.22;4969471;28;20683;-67
2021/12/25 08:27:35;;;;;;;;;;;;;;;3.33;85.79;99934.47;4974838;28;20805;-68
2021/12/25 08:30:00;;;;;;;;;;;;;;;3.38;86.13;99937.59;4961679;28;19985;-68
2021/12/25 08:32:25;;;;;;;;;;;;;;;3.40;86.13;99940.94;4972391;28;19972;-69
2021/12/25 08:34:51;;;;;;;;;;;;;;;3.37;86.74;99945.53;4977149;28;19905;-68
2021/12/25 08:37:19;;;;;;;;;;;;;;;3.33;86.25;99954.53;4977602;28;19912;-69
2021/12/25 08:39:44;;;;;;;;;;;;;;;3.34;86.72;99954.47;4970474;28;19909;-68
2021/12/25 08:42:10;;;;;;;;;;;;;;;3.40;87.00;99951.41;4966993;28;20144;-69
2021/12/25 08:44:40;;;;;;;;;;;;;;;3.35;86.75;99958.72;4972738;28;19909;-70
2021/12/25 08:47:07;;;;;;;;;;;;;;;3.31;86.26;99964.28;4982633;28;19908;-67
2021/12/25 08:49:32;;;;;;;;;;;;;;;3.24;86.80;99964.75;4970045;28;19905;-68
2021/12/25 08:51:58;;;;;;;;;;;;;;;3.23;86.33;99970.09;4995991;28;20322;-68
2021/12/25 08:54:23;;;;;;;;;;;;;;;3.31;86.43;99967.72;4994922;28;19912;-69
2021/12/25 08:56:49;;;;;;;;;;;;;;;3.39;86.33;99965.41;5007186;28;20857;-68
2021/12/25 08:59:14;;;;;;;;;;;;;;;3.39;86.19;99969.81;4986084;28;19953;-68
2021/12/25 09:01:39;;;;;;;;;;;;;;;3.38;86.44;99989.06;4988576;28;20387;-68
2021/12/25 09:04:05;;;;;;;;;;;;;;;3.49;86.59;99986.50;5003348;28;19909;-69
2021/12/25 09:06:30;;;;;;;;;;;;;;;3.59;86.16;99986.69;5005083;28;19909;-70
2021/12/25 09:08:55;;;;;;;;;;;;;;;3.58;85.11;99995.47;4979999;28;20840;-69
2021/12/25 09:11:21;;;;;;;;;;;;;;;3.50;85.63;99995.19;5005714;28;19956;-69
2021/12/25 09:13:47;;;;;;;;;;;;;;;3.42;86.27;99995.75;4990065;28;20427;-70
2021/12/25 09:16:12;;;;;;;;;;;;;;;3.54;85.83;100002.72;4985776;28;20534;-68
2021/12/25 09:18:37;;;;;;;;;;;;;;;3.58;85.62;99996.34;4972843;28;19908;-69
2021/12/25 09:21:03;;;;;;;;;;;;;;;3.37;85.33;99998.69;4982845;28;19938;-67
2021/12/25 09:23:28;;;;;;;;;;;;;;;3.47;85.25;100008.47;4984070;28;19965;-70
2021/12/25 09:25:53;;;;;;;;;;;;;;;3.38;86.05;100008.19;4982236;28;19911;-69
2021/12/25 09:28:18;;;;;;;;;;;;;;;3.38;85.79;100002.13;4979954;28;19961;-70
2021/12/25 09:30:44;;;;;;;;;;;;;;;3.33;85.80;100006.84;4977877;28;20817;-68
2021/12/25 09:33:09;;;;;;;;;;;;;;;3.33;85.93;100002.47;4967096;28;19925;-68
2021/12/25 09:35:34;;;;;;;;;;;;;;;3.39;86.22;100011.66;4977099;28;19945;-68
2021/12/25 09:38:00;;;;;;;;;;;;;;;3.40;85.32;100013.34;4999678;28;20044;-68
2021/12/25 09:40:25;;;;;;;;;;;;;;;3.42;85.98;100012.25;4991212;28;19938;-69
2021/12/25 09:42:50;;;;;;;;;;;;;;;3.53;85.86;100008.06;4982389;28;20867;-67
2021/12/25 09:45:15;;;;;;;;;;;;;;;3.45;85.57;100005.97;4963509;28;19925;-68
2021/12/25 09:47:41;;;;;;;;;;;;;;;3.42;86.21;100011.44;4965190;28;20025;-69
2021/12/25 09:50:06;;;;;;;;;;;;;;;3.59;87.11;100020.69;4961818;28;20004;-69
2021/12/25 09:52:31;;;;;;;;;;;;;;;3.65;86.46;100030.72;4967895;28;20366;-69
2021/12/25 09:54:57;;;;;;;;;;;;;;;3.63;85.77;100027.38;4962924;28;20188;-69
2021/12/25 09:57:23;;;;;;;;;;;;;;;3.55;85.33;100019.25;4963450;28;19914;-69
2021/12/25 09:59:48;;;;;;;;;;;;;;;3.53;85.62;100021.97;4984159;28;19918;-68
2021/12/25 10:02:14;;;;;;;;;;;;;;;3.59;85.98;100029.38;4978661;28;19912;-69
2021/12/25 10:04:44;;;;;;;;;;;;;;;3.49;85.45;100027.53;4986219;28;19904;-69
2021/12/25 10:07:22;;;;;;;;;;;;;;;3.55;85.40;100027.94;4984174;28;19908;-69
2021/12/25 10:09:55;;;;;;;;;;;;;;;3.59;85.07;100029.38;4983013;28;19988;-67
2021/12/25 10:12:20;;;;;;;;;;;;;;;3.49;84.44;100043.22;4963017;28;19920;-69
2021/12/25 10:14:50;;;;;;;;;;;;;;;3.56;84.84;100036.63;4968255;28;19974;-69
2021/12/25 10:17:16;;;;;;;;;;;;;;;3.62;85.11;100033.56;4986031;28;19920;-69
2021/12/25 10:19:41;;;;;;;;;;;;;;;3.73;84.81;100038.03;4969797;28;20009;-68
2021/12/25 10:22:07;;;;;;;;;;;;;;;3.67;84.74;100039.31;4948060;28;19915;-70
2021/12/25 10:24:38;;;;;;;;;;;;;;;3.69;85.51;100034.78;4967511;28;20825;-70
2021/12/25 10:27:08;;;;;;;;;;;;;;;3.68;85.34;100040.97;4990646;28;20091;-68
2021/12/25 10:29:33;;;;;;;;;;;;;;;3.76;85.25;100040.41;4990559;28;19961;-70
2021/12/25 10:31:58;;;;;;;;;;;;;;;3.84;85.45;100042.50;5015822;28;19968;-67
2021/12/25 10:34:25;;;;;;;;;;;;;;;3.96;85.03;100036.34;5007281;28;19983;-69
2021/12/25 10:36:50;;;;;;;;;;;;;;;3.95;83.68;100037.31;4977675;28;19917;-70
2021/12/25 10:39:16;;;;;;;;;;;;;;;3.93;84.67;100039.19;4989887;28;19911;-69
2021/12/25 10:41:54;;;;;;;;;;;;;;;4.01;84.38;100036.88;4978791;28;19930;-69
2021/12/25 10:44:27;;;;;;;;;;;;;;;3.93;84.95;100037.44;4994493;28;19908;-69
2021/12/25 10:46:54;;;;;;;;;;;;;;;3.91;83.95;100025.41;4976002;28;20388;-67
2021/12/25 10:49:19;;;;;;;;;;;;;;;3.81;84.05;100027.00;4991201;28;20410;-68
2021/12/25 10:51:44;;;;;;;;;;;;;;;3.82;83.43;100023.44;4975015;28;20736;-67
2021/12/25 10:54:12;;;;;;;;;;;;;;;3.91;84.42;100028.03;4976709;28;20032;-67
2021/12/25 10:56:38;;;;;;;;;;;;;;;3.91;84.13;100022.78;4974786;28;20052;-67
2021/12/25 10:59:04;;;;;;;;;;;;;;;3.97;83.66;100018.88;4976581;28;20750;-67
2021/12/25 11:01:30;;;;;;;;;;;;;;;3.92;83.13;100024.44;4975268;28;20005;-67
2021/12/25 11:03:56;;;;;;;;;;;;;;;3.78;83.08;100021.03;4975398;28;19915;-68
2021/12/25 11:06:22;;;;;;;;;;;;;;;3.86;82.64;100022.28;4971781;28;20024;-67
2021/12/25 11:08:47;;;;;;;;;;;;;;;3.92;83.32;100020.06;4972539;28;20274;-68
2021/12/25 11:11:16;;;;;;;;;;;;;;;4.09;83.72;100020.56;4975272;28;20400;-68
2021/12/25 11:13:43;;;;;;;;;;;;;;;4.16;83.05;100010.50;4954447;28;19924;-67
2021/12/25 11:16:11;;;;;;;;;;;;;;;4.24;82.95;100013.38;4953700;28;20505;-68
2021/12/25 11:19:05;;;;;;;;;;;;;;;4.05;82.94;100017.38;4954522;28;19905;-69
2021/12/25 11:21:35;;;;;;;;;;;;;;;4.23;82.46;100016.94;4954613;28;19916;-69
2021/12/25 11:24:10;;;;;;;;;;;;;;;4.27;82.18;100016.63;4972878;28;19908;-67
2021/12/25 11:26:36;;;;;;;;;;;;;;;4.42;82.61;100017.25;4952724;28;20017;-67
2021/12/25 11:29:01;;;;;;;;;;;;;;;4.47;83.10;100020.38;4955540;28;19984;-68
2021/12/25 11:31:27;;;;;;;;;;;;;;;4.21;80.25;100026.72;4968291;28;20658;-67
2021/12/25 11:33:52;;;;;;;;;;;;;;;4.32;81.93;100025.94;4968336;28;19924;-68
2021/12/25 11:36:17;;;;;;;;;;;;;;;4.40;82.17;100032.25;4962989;28;20503;-68
2021/12/25 11:38:43;;;;;;;;;;;;;;;4.42;80.79;100032.97;4962555;28;20404;-69
2021/12/25 11:41:09;;;;;;;;;;;;;;;4.46;80.98;100038.81;4996944;28;20002;-68
2021/12/25 11:43:36;;;;;;;;;;;;;;;4.44;80.16;100048.56;4982244;28;19908;-68
2021/12/25 11:46:05;;;;;;;;;;;;;;;4.37;80.84;100045.59;4965801;28;20769;-68
2021/12/25 11:48:31;;;;;;;;;;;;;;;4.32;80.31;100042.47;5011475;28;19913;-68
2021/12/25 11:50:56;;;;;;;;;;;;;;;4.34;80.67;100037.94;5001354;28;19915;-68
2021/12/25 11:53:30;;;;;;;;;;;;;;;4.39;80.79;100051.53;5003013;28;19924;-68
2021/12/25 11:59:01;;;;;;;;;;;;;;;4.35;80.50;100033.56;4986895;28;20442;-69
2021/12/25 12:01:33;;;;;;;;;;;;;;;4.34;81.57;100035.31;4983606;28;19923;-69
2021/12/25 12:03:58;;;;;;;;;;;;;;;4.29;82.27;100037.47;4985738;28;20251;-68
2021/12/25 12:06:42;;;;;;;;;;;;;;;4.23;82.03;100040.50;4999512;28;19919;-68
2021/12/25 12:09:10;;;;;;;;;;;;;;;4.24;83.43;100037.78;4992848;28;20009;-68
2021/12/25 12:11:36;;;;;;;;;;;;;;;4.18;82.19;100033.00;5000239;28;19994;-68
2021/12/25 12:14:17;;;;;;;;;;;;;;;4.19;82.94;100039.06;4980975;28;20672;-69
2021/12/25 12:16:43;;;;;;;;;;;;;;;4.24;82.32;100039.56;4966518;28;20005;-68
2021/12/25 12:19:27;;;;;;;;;;;;;;;4.28;82.24;100033.97;4949385;28;19908;-69
2021/12/25 12:21:52;;;;;;;;;;;;;;;4.26;81.05;100027.22;4981542;28;19900;-69
2021/12/25 12:24:47;;;;;;;;;;;;;;;4.23;80.65;100022.19;4958714;28;20097;-69
2021/12/25 12:27:09;;;;;;;;;;;;;;;4.27;81.79;100028.88;4967067;28;20498;-69
2021/12/25 12:29:38;;;;;;;;;;;;;;;4.23;80.78;100027.41;4946978;28;20693;-70
2021/12/25 12:32:03;;;;;;;;;;;;;;;4.27;79.90;100028.88;4983370;28;19968;-68
2021/12/25 12:34:33;;;;;;;;;;;;;;;4.25;80.04;100036.00;4981731;28;20455;-68
2021/12/25 12:37:13;;;;;;;;;;;;;;;4.13;79.44;100038.59;4993144;28;19920;-69
2021/12/25 12:39:39;;;;;;;;;;;;;;;4.03;79.73;100042.81;4988913;28;20203;-69
2021/12/25 12:42:08;;;;;;;;;;;;;;;3.92;78.89;100043.59;4965518;28;20317;-69
2021/12/25 12:44:33;;;;;;;;;;;;;;;3.98;79.94;100046.72;4964625;28;19920;-69
2021/12/25 12:47:00;;;;;;;;;;;;;;;4.08;80.28;100045.13;4974332;28;20146;-69
2021/12/25 12:49:28;;;;;;;;;;;;;;;4.08;79.50;100043.31;5003130;28;19916;-68
2021/12/25 12:52:12;;;;;;;;;;;;;;;3.96;79.14;100036.34;4981429;28;20756;-69
2021/12/25 12:54:40;;;;;;;;;;;;;;;4.15;79.49;100041.09;5001887;28;19908;-69
2021/12/25 12:57:05;;;;;;;;;;;;;;;4.12;78.58;100036.91;4997171;28;19933;-68
2021/12/25 12:59:43;;;;;;;;;;;;;;;4.19;78.91;100041.69;5001944;28;19917;-69
2021/12/25 13:02:09;;;;;;;;;;;;;;;4.27;79.35;100052.44;4997184;28;19905;-68
2021/12/25 13:04:41;;;;;;;;;;;;;;;4.09;79.00;100049.38;4992639;28;19905;-68
2021/12/25 13:07:13;;;;;;;;;;;;;;;4.10;78.29;100049.28;4994191;28;19917;-68
2021/12/25 13:09:43;;;;;;;;;;;;;;;4.11;78.92;100048.31;4994508;28;19908;-69
2021/12/25 13:12:19;;;;;;;;;;;;;;;4.12;78.56;100047.38;5000530;28;19920;-68
2021/12/25 13:14:45;;;;;;;;;;;;;;;4.10;78.86;100056.28;5000945;28;19945;-68
2021/12/25 13:17:10;;;;;;;;;;;;;;;4.15;78.37;100055.97;4983815;28;20063;-69
2021/12/25 13:19:47;;;;;;;;;;;;;;;4.01;75.63;100064.84;4998738;28;19912;-68
2021/12/25 13:22:12;;;;;;;;;;;;;;;3.92;77.05;100068.94;4962222;28;19919;-67
2021/12/25 13:24:38;;;;;;;;;;;;;;;4.08;75.26;100066.06;4983985;28;20924;-69
2021/12/25 13:27:03;;;;;;;;;;;;;;;3.91;75.96;100072.50;4998184;28;20140;-68
2021/12/25 13:29:28;;;;;;;;;;;;;;;4.01;76.47;100072.69;4971130;28;20358;-69
2021/12/25 13:31:53;;;;;;;;;;;;;;;3.74;74.53;100078.97;4977669;28;19915;-69
2021/12/25 13:34:20;;;;;;;;;;;;;;;3.67;76.23;100070.69;4975715;28;19904;-69
2021/12/25 13:36:50;;;;;;;;;;;;;;;3.77;76.75;100078.72;4960333;28;20456;-67
2021/12/25 13:39:16;;;;;;;;;;;;;;;3.71;76.57;100080.00;4957828;28;19911;-69
2021/12/25 13:41:43;;;;;;;;;;;;;;;3.69;75.74;100081.06;4975061;28;20209;-67
2021/12/25 13:44:15;;;;;;;;;;;;;;;3.61;75.49;100086.84;4976435;28;19900;-67
2021/12/25 13:46:40;;;;;;;;;;;;;;;3.70;76.33;100088.78;4972093;28;20108;-68
2021/12/25 13:49:06;;;;;;;;;;;;;;;3.74;75.99;100081.56;4993158;28;19904;-67
2021/12/25 13:51:31;;;;;;;;;;;;;;;3.54;75.07;100081.19;4992660;28;19912;-68
2021/12/25 13:53:56;;;;;;;;;;;;;;;3.42;75.25;100082.88;4973558;28;19932;-66
2021/12/25 13:56:22;;;;;;;;;;;;;;;3.36;76.03;100082.50;4975558;28;19909;-67
2021/12/25 13:58:47;;;;;;;;;;;;;;;3.41;75.56;100078.63;4992038;28;19908;-68